Histria Agata — 9HSB8 — position and weather

sailwx.info

Track history (hours):
 
Tides and Currents Weather Stations Pressure Air Temp Water Temp Dewpoint Dewpoint Depression Visibility Wind Speed Wind Dir Waves Ship Positions

Histria Agata

Last reported at 2017-Dec-07 13:18 UTC. Time now 2017-Dec-15 23:52 UTC.
Position N 36°30' E 026°43'.
Warning: this ship's position is 8 days out of date.

Length 180 m; draft 9.2 m.

Type: Ship (hazmat cat C). MMSI: 256359000.

Date/timePositionNaut miles runAvg speedWind from/ knotsBaromVisibWave heightAir tempDewpointWater temp
2017-Dec-07 13:18N 36°30' E 026°43'912.7
2017-Dec-07 12:33N 36°37' E 026°35'212.4
2017-Dec-07 12:25N 36°39' E 026°33'512.6
2017-Dec-07 12:00N 36°42' E 026°29'613.0
2017-Dec-07 11:30N 36°47' E 026°23'713.2
2017-Dec-07 10:59N 36°52' E 026°17'813.3
2017-Dec-07 10:24N 36°58' E 026°11'512.7
2017-Dec-07 10:00N 37°03' E 026°08'612.6
2017-Dec-07 09:30N 37°08' E 026°04'612.6
2017-Dec-07 09:00N 37°13' E 026°00'612.8
2017-Dec-07 08:30N 37°19' E 025°56'612.8
2017-Dec-07 08:00N 37°25' E 025°52'1312.1
2017-Dec-07 06:56N 37°36' E 025°45'512.1
2017-Dec-07 06:30N 37°41' E 025°45'712.1
2017-Dec-07 05:56N 37°48' E 025°45'  
2017-Dec-01 06:56N 38°01' E 025°45'613.2
2017-Dec-01 06:30N 37°55' E 025°45'713.3
2017-Dec-01 06:01N 37°49' E 025°45'713.5
2017-Dec-01 05:31N 37°42' E 025°45'813.5
2017-Dec-01 04:56N 37°34' E 025°45'613.0
2017-Dec-01 04:30N 37°30' E 025°49'612.9
2017-Dec-01 04:00N 37°24' E 025°53'612.8
2017-Dec-01 03:30N 37°18' E 025°56'612.9
2017-Dec-01 03:00N 37°13' E 026°01'612.9
2017-Dec-01 02:30N 37°07' E 026°05'612.9
2017-Dec-01 02:00N 37°02' E 026°09'712.7
2017-Dec-01 01:27N 36°56' E 026°14'612.5
2017-Dec-01 01:00N 36°52' E 026°19'612.7
2017-Dec-01 00:30N 36°47' E 026°24'612.9
2017-Dec-01 00:00N 36°43' E 026°30'712.9
2017-Nov-30 23:27N 36°38' E 026°36'613.1
2017-Nov-30 22:59N 36°33' E 026°42'613.0
2017-Nov-30 22:29N 36°29' E 026°48'  
Track history (hours):
 
Tides and Currents Weather Stations Pressure Air Temp Water Temp Dewpoint Dewpoint Depression Visibility Wind Speed Wind Dir Waves Ship Positions

Histria Agata

Last reported at 2017-Dec-07 13:18 UTC. Time now 2017-Dec-15 23:52 UTC.
Position N 36°30' E 026°43'.
Warning: this ship's position is 8 days out of date.

Length 180 m; draft 9.2 m.

Type: Ship (hazmat cat C). MMSI: 256359000.

Date/timePositionNaut miles runAvg speedWind from/ knotsBaromVisibWave heightAir tempDewpointWater temp
2017-Dec-07 13:18N 36°30' E 026°43'912.7
2017-Dec-07 12:33N 36°37' E 026°35'212.4
2017-Dec-07 12:25N 36°39' E 026°33'512.6
2017-Dec-07 12:00N 36°42' E 026°29'613.0
2017-Dec-07 11:30N 36°47' E 026°23'713.2
2017-Dec-07 10:59N 36°52' E 026°17'813.3
2017-Dec-07 10:24N 36°58' E 026°11'512.7
2017-Dec-07 10:00N 37°03' E 026°08'612.6
2017-Dec-07 09:30N 37°08' E 026°04'612.6
2017-Dec-07 09:00N 37°13' E 026°00'612.8
2017-Dec-07 08:30N 37°19' E 025°56'612.8
2017-Dec-07 08:00N 37°25' E 025°52'1312.1
2017-Dec-07 06:56N 37°36' E 025°45'512.1
2017-Dec-07 06:30N 37°41' E 025°45'712.1
2017-Dec-07 05:56N 37°48' E 025°45'  
2017-Dec-01 06:56N 38°01' E 025°45'613.2
2017-Dec-01 06:30N 37°55' E 025°45'713.3
2017-Dec-01 06:01N 37°49' E 025°45'713.5
2017-Dec-01 05:31N 37°42' E 025°45'813.5
2017-Dec-01 04:56N 37°34' E 025°45'613.0
2017-Dec-01 04:30N 37°30' E 025°49'612.9
2017-Dec-01 04:00N 37°24' E 025°53'612.8
2017-Dec-01 03:30N 37°18' E 025°56'612.9
2017-Dec-01 03:00N 37°13' E 026°01'612.9
2017-Dec-01 02:30N 37°07' E 026°05'612.9
2017-Dec-01 02:00N 37°02' E 026°09'712.7
2017-Dec-01 01:27N 36°56' E 026°14'612.5
2017-Dec-01 01:00N 36°52' E 026°19'612.7
2017-Dec-01 00:30N 36°47' E 026°24'612.9
2017-Dec-01 00:00N 36°43' E 026°30'712.9
2017-Nov-30 23:27N 36°38' E 026°36'613.1
2017-Nov-30 22:59N 36°33' E 026°42'613.0
2017-Nov-30 22:29N 36°29' E 026°48'  

Dump ship's entire track history